createdAt,value
2022-11-03T00:01:57.877Z,4.05
2022-11-03T00:07:04.892Z,2.88
2022-11-03T00:12:13.029Z,3.97
2022-11-03T00:17:19.831Z,3.17
2022-11-03T00:22:26.693Z,3.50
2022-11-03T00:27:35.955Z,3.60
2022-11-03T00:32:42.571Z,3.75
2022-11-03T00:37:49.130Z,3.00
2022-11-03T00:42:57.319Z,3.15
2022-11-03T00:48:26.563Z,2.70
2022-11-03T00:53:34.271Z,2.70
2022-11-03T00:58:42.804Z,2.70
2022-11-03T01:04:05.697Z,3.17
2022-11-03T01:09:12.465Z,2.60
2022-11-03T01:14:20.592Z,3.03
2022-11-03T01:19:27.368Z,2.00
2022-11-03T01:24:33.955Z,1.83
2022-11-03T01:29:42.196Z,2.20
2022-11-03T01:34:48.551Z,2.47
2022-11-03T01:39:55.479Z,3.05
2022-11-03T01:45:03.703Z,2.67
2022-11-03T01:50:15.383Z,1.65
2022-11-03T01:55:26.262Z,1.40
2022-11-03T02:00:34.414Z,1.85
2022-11-03T02:05:42.083Z,1.67
2022-11-03T02:10:50.854Z,1.50
2022-11-03T02:16:01.318Z,1.58
2022-11-03T02:21:27.265Z,1.20
2022-11-03T02:26:35.981Z,1.48
2022-11-03T02:31:51.281Z,2.22
2022-11-03T02:37:04.212Z,1.65
2022-11-03T02:42:14.382Z,1.90
2022-11-03T02:47:22.302Z,1.60
2022-11-03T02:52:40.800Z,2.00
2022-11-03T02:57:55.167Z,1.27
2022-11-03T03:03:09.436Z,1.80
2022-11-03T03:08:18.140Z,1.40
2022-11-03T03:13:27.078Z,2.17
2022-11-03T03:18:44.539Z,2.22
2022-11-03T03:23:56.654Z,1.60
2022-11-03T03:29:12.444Z,1.67
2022-11-03T03:34:34.573Z,1.60
2022-11-03T03:39:45.768Z,2.03
2022-11-03T03:44:54.622Z,1.77
2022-11-03T03:50:02.654Z,1.67
2022-11-03T03:55:18.723Z,2.50
2022-11-03T04:00:26.761Z,1.88
2022-11-03T04:05:33.277Z,2.33
2022-11-03T04:10:39.634Z,2.92
2022-11-03T04:16:04.758Z,3.25
2022-11-03T04:21:32.868Z,3.28
2022-11-03T04:26:39.638Z,2.90
2022-11-03T04:31:47.671Z,3.10
2022-11-03T04:36:54.132Z,2.85
2022-11-03T04:42:00.722Z,3.17
2022-11-03T04:47:13.359Z,3.88
2022-11-03T04:52:23.147Z,3.00
2022-11-03T04:57:30.864Z,3.92
2022-11-03T05:02:38.829Z,3.20
2022-11-03T05:07:45.438Z,3.22
2022-11-03T05:12:54.277Z,3.17
2022-11-03T05:18:04.249Z,3.72
2022-11-03T05:23:14.725Z,3.00
2022-11-03T05:28:27.889Z,3.53
2022-11-03T05:33:39.121Z,2.95
2022-11-03T05:38:45.207Z,3.45
2022-11-03T05:43:59.261Z,5.38
2022-11-03T05:49:08.564Z,4.00
2022-11-03T05:54:24.061Z,3.58
2022-11-03T05:59:31.153Z,3.75
2022-11-03T06:04:40.800Z,3.03
2022-11-03T06:09:46.843Z,2.85
2022-11-03T06:14:53.946Z,2.78
2022-11-03T06:20:03.377Z,2.70
2022-11-03T06:25:22.639Z,3.85
2022-11-03T06:30:31.352Z,4.07
2022-11-03T06:40:44.649Z,5.13
2022-11-03T06:45:57.180Z,4.53
2022-11-03T06:51:20.197Z,4.82
2022-11-03T06:56:30.367Z,5.00
2022-11-03T07:01:37.870Z,5.32
2022-11-03T07:06:52.797Z,6.00
2022-11-03T07:12:02.413Z,5.78
2022-11-03T07:17:17.199Z,4.97
2022-11-03T07:22:28.003Z,7.03
2022-11-03T07:27:38.178Z,5.35
2022-11-03T07:32:44.860Z,5.95
2022-11-03T07:37:54.201Z,5.30
2022-11-03T07:43:11.528Z,5.88
2022-11-03T07:48:24.557Z,5.18
2022-11-03T07:53:43.775Z,5.07
2022-11-03T08:04:06.454Z,4.65
2022-11-03T08:09:14.361Z,4.13
2022-11-03T08:14:21.042Z,4.45
2022-11-03T08:19:27.530Z,4.32
2022-11-03T08:24:35.850Z,5.28
2022-11-03T08:29:42.387Z,5.10
2022-11-03T08:34:48.828Z,4.47
2022-11-03T08:39:56.858Z,5.13
2022-11-03T08:45:03.542Z,4.57
2022-11-03T08:50:10.830Z,4.78
2022-11-03T08:55:19.091Z,3.88
2022-11-03T09:00:25.767Z,4.85
2022-11-03T09:05:32.760Z,4.72
2022-11-03T09:10:43.510Z,3.92
2022-11-03T09:15:50.657Z,3.67
2022-11-03T09:20:57.613Z,4.35
2022-11-03T09:26:06.524Z,3.42
2022-11-03T09:31:13.157Z,3.53
2022-11-03T09:36:19.388Z,3.15
2022-11-03T09:41:45.876Z,3.10
2022-11-03T09:46:58.245Z,3.15
2022-11-03T09:52:06.263Z,2.90
2022-11-03T09:57:18.187Z,2.67
2022-11-03T10:02:30.422Z,2.22
2022-11-03T10:07:37.513Z,1.80
2022-11-03T10:12:45.922Z,1.83
2022-11-03T10:17:58.478Z,1.90
2022-11-03T10:23:05.003Z,2.80
2022-11-03T10:28:22.568Z,2.30
2022-11-03T10:33:33.976Z,1.60
2022-11-03T10:38:40.190Z,1.77
2022-11-03T10:44:02.271Z,2.15
2022-11-03T10:49:16.553Z,2.42
2022-11-03T10:54:25.287Z,2.22
2022-11-03T10:59:37.098Z,1.80
2022-11-03T11:04:43.678Z,2.67
2022-11-03T11:09:50.155Z,1.25
2022-11-03T11:15:00.127Z,1.30
2022-11-03T11:20:43.502Z,1.38
2022-11-03T11:26:29.992Z,1.17
2022-11-03T11:31:38.569Z,1.35
2022-11-03T11:36:48.050Z,0.82
2022-11-03T11:48:00.158Z,2.75
2022-11-03T11:53:27.610Z,1.20
2022-11-03T11:59:03.342Z,1.65
2022-11-03T12:04:20.707Z,1.60
2022-11-03T12:09:29.647Z,1.33
2022-11-03T12:14:38.262Z,1.63
2022-11-03T12:19:48.252Z,1.60
2022-11-03T12:24:56.043Z,1.40
2022-11-03T12:30:05.132Z,1.30
2022-11-03T12:40:20.214Z,1.40
2022-11-03T12:45:26.285Z,1.42
2022-11-03T12:50:34.679Z,1.42
2022-11-03T12:55:43.794Z,2.00
2022-11-03T13:00:54.993Z,2.70
2022-11-03T13:06:05.610Z,1.10
2022-11-03T13:11:25.296Z,1.30
2022-11-03T13:16:31.332Z,1.40
2022-11-03T13:21:39.165Z,1.40
2022-11-03T13:26:45.096Z,1.00
2022-11-03T13:31:51.300Z,1.02
2022-11-03T13:36:58.986Z,1.42
2022-11-03T13:42:05.029Z,1.65
2022-11-03T13:47:11.985Z,1.20
2022-11-03T13:52:19.633Z,1.52
2022-11-03T14:08:19.265Z,1.35
2022-11-03T14:13:25.282Z,1.00
2022-11-03T14:18:31.283Z,2.10
2022-11-03T14:23:38.802Z,1.15
2022-11-03T14:28:45.250Z,1.35
2022-11-03T14:33:51.261Z,1.10
2022-11-03T14:38:58.772Z,4.90
2022-11-03T14:44:05.041Z,1.52
2022-11-03T14:49:11.354Z,2.22
2022-11-03T14:54:18.808Z,2.25
2022-11-03T14:59:25.687Z,2.47
2022-11-03T15:04:31.666Z,2.10
2022-11-03T15:09:39.127Z,4.13
2022-11-03T15:14:45.101Z,5.95
2022-11-03T15:19:51.471Z,12.98
2022-11-03T15:25:15.996Z,16.98
2022-11-03T15:30:24.794Z,16.67
2022-11-03T15:35:31.014Z,12.77
2022-11-03T15:40:38.554Z,10.30
2022-11-03T15:45:44.656Z,11.43
2022-11-03T15:50:51.155Z,21.02
2022-11-03T15:55:58.973Z,22.17
2022-11-03T16:01:06.024Z,26.10
2022-11-03T16:06:12.473Z,25.95
2022-11-03T16:11:19.919Z,30.65
2022-11-03T16:16:27.217Z,36.75
2022-11-03T16:21:33.823Z,48.90
2022-11-03T16:26:41.223Z,50.25
2022-11-03T16:31:49.488Z,22.85
2022-11-03T16:36:56.479Z,15.68
2022-11-03T16:42:05.465Z,36.85
2022-11-03T16:47:12.085Z,16.52
2022-11-03T16:52:18.917Z,16.55
2022-11-03T16:57:26.337Z,25.95
2022-11-03T17:02:40.614Z,20.58
2022-11-03T17:07:52.042Z,14.65
2022-11-03T17:13:03.063Z,13.82
2022-11-03T17:18:12.042Z,16.83
2022-11-03T17:23:18.571Z,14.75
2022-11-03T17:28:28.248Z,15.90
2022-11-03T17:33:35.172Z,15.77
2022-11-03T17:38:41.579Z,15.18
2022-11-03T17:43:50.195Z,17.73
2022-11-03T17:48:56.649Z,18.20
2022-11-03T17:54:08.800Z,17.50
2022-11-03T17:59:18.635Z,15.40
2022-11-03T18:04:25.548Z,15.73
2022-11-03T18:09:33.079Z,20.63
2022-11-03T18:14:40.827Z,23.88
2022-11-03T18:19:47.762Z,22.63
2022-11-03T18:24:54.558Z,28.58
2022-11-03T18:30:03.708Z,29.25
2022-11-03T18:35:19.218Z,26.67
2022-11-03T18:40:27.314Z,26.48
2022-11-03T18:45:36.603Z,23.88
2022-11-03T18:50:45.317Z,23.30
2022-11-03T18:55:52.583Z,23.88
2022-11-03T19:01:03.122Z,24.35
2022-11-03T19:06:16.374Z,21.15
2022-11-03T19:11:24.551Z,20.27
2022-11-03T19:16:33.359Z,17.27
2022-11-03T19:21:40.707Z,17.58
2022-11-03T19:26:56.349Z,17.58
2022-11-03T19:32:18.160Z,15.05
2022-11-03T19:37:24.996Z,16.08
2022-11-03T19:42:33.860Z,15.85
2022-11-03T19:48:10.703Z,14.68
2022-11-03T19:53:20.851Z,9.98
2022-11-03T19:58:30.454Z,11.68
2022-11-03T20:03:40.582Z,10.43
2022-11-03T20:08:50.583Z,10.38
2022-11-03T20:14:09.562Z,10.45
2022-11-03T20:19:18.353Z,12.07
2022-11-03T20:24:26.155Z,8.43
2022-11-03T20:29:34.919Z,9.02
2022-11-03T20:34:44.552Z,10.07
2022-11-03T20:39:52.283Z,10.43
2022-11-03T20:45:00.601Z,9.63
2022-11-03T20:50:11.427Z,9.88
2022-11-03T20:55:20.253Z,11.00
2022-11-03T21:00:29.093Z,11.60
2022-11-03T21:05:37.886Z,11.32
2022-11-03T21:10:45.613Z,11.52
2022-11-03T21:16:23.988Z,12.55
2022-11-03T21:21:33.519Z,11.73
2022-11-03T21:26:42.529Z,12.10
2022-11-03T21:31:49.558Z,9.48
2022-11-03T21:36:57.882Z,10.88
2022-11-03T21:42:24.008Z,9.40
2022-11-03T21:47:30.538Z,8.98
2022-11-03T21:52:38.525Z,10.45
2022-11-03T21:57:45.031Z,8.70
2022-11-03T22:02:51.599Z,7.13
2022-11-03T22:07:59.618Z,6.43
2022-11-03T22:13:07.395Z,6.68
2022-11-03T22:18:14.214Z,6.97
2022-11-03T22:23:39.565Z,6.47
2022-11-03T22:28:46.243Z,7.25
2022-11-03T22:34:09.839Z,6.60
2022-11-03T22:39:35.243Z,6.78
2022-11-03T22:44:58.932Z,6.45
2022-11-03T22:50:05.935Z,5.93
2022-11-03T22:55:14.077Z,5.25
2022-11-03T23:00:22.889Z,6.93
2022-11-03T23:05:29.470Z,6.85
2022-11-03T23:10:37.421Z,6.40
2022-11-03T23:15:44.605Z,5.63
2022-11-03T23:21:09.916Z,7.38
2022-11-03T23:26:18.894Z,7.03
2022-11-03T23:31:25.554Z,6.45
2022-11-03T23:36:32.442Z,7.03
2022-11-03T23:41:40.485Z,7.85
2022-11-03T23:47:04.565Z,8.90
2022-11-03T23:52:11.485Z,7.97
2022-11-03T23:57:36.902Z,6.97
